createdAt,value
2023-07-24T00:02:19.725Z,8.70
2023-07-24T00:04:47.356Z,8.30
2023-07-24T00:07:15.425Z,8.10
2023-07-24T00:12:26.007Z,8.90
2023-07-24T00:14:54.084Z,9.00
2023-07-24T00:17:21.957Z,8.90
2023-07-24T00:19:50.327Z,8.20
2023-07-24T00:22:17.984Z,9.20
2023-07-24T00:24:46.211Z,8.30
2023-07-24T00:27:15.247Z,8.40
2023-07-24T00:29:42.911Z,7.80
2023-07-24T00:32:10.569Z,7.10
2023-07-24T00:34:38.231Z,7.10
2023-07-24T00:37:06.362Z,7.30
2023-07-24T00:39:34.472Z,7.40
2023-07-24T00:42:03.062Z,7.00
2023-07-24T00:44:30.611Z,7.20
2023-07-24T00:46:58.372Z,7.50
2023-07-24T00:49:26.147Z,6.80
2023-07-24T00:51:54.423Z,7.10
2023-07-24T00:54:22.077Z,6.30
2023-07-24T00:56:49.643Z,7.50
2023-07-24T00:59:17.309Z,7.40
2023-07-24T01:01:45.061Z,7.50
2023-07-24T01:04:13.948Z,7.20
2023-07-24T01:06:41.617Z,6.60
2023-07-24T01:09:09.272Z,7.20
2023-07-24T01:11:58.130Z,7.60
2023-07-24T01:14:38.914Z,8.30
2023-07-24T01:17:08.100Z,7.80
2023-07-24T01:19:39.968Z,7.60
2023-07-24T01:22:12.326Z,7.80
2023-07-24T01:24:51.216Z,7.70
2023-07-24T01:27:25.913Z,7.40
2023-07-24T01:29:54.355Z,7.00
2023-07-24T01:32:22.159Z,7.40
2023-07-24T01:34:50.118Z,7.80
2023-07-24T01:37:17.746Z,6.80
2023-07-24T01:39:45.611Z,7.20
2023-07-24T01:42:13.376Z,7.70
2023-07-24T01:44:41.037Z,7.20
2023-07-24T01:47:08.861Z,7.30
2023-07-24T01:49:36.573Z,8.10
2023-07-24T01:52:04.692Z,8.20
2023-07-24T01:54:32.298Z,8.70
2023-07-24T01:56:59.993Z,7.90
2023-07-24T01:59:27.625Z,7.30
2023-07-24T02:01:55.840Z,7.20
2023-07-24T02:04:23.759Z,8.20
2023-07-24T02:06:51.423Z,7.80
2023-07-24T02:09:19.287Z,7.00
2023-07-24T02:11:46.954Z,6.70
2023-07-24T02:14:15.221Z,7.60
2023-07-24T02:16:45.109Z,8.10
2023-07-24T02:19:13.720Z,7.90
2023-07-24T02:21:42.202Z,7.30
2023-07-24T02:24:09.865Z,6.90
2023-07-24T02:26:38.035Z,7.10
2023-07-24T02:29:05.697Z,7.00
2023-07-24T02:31:34.143Z,7.40
2023-07-24T02:34:01.845Z,7.70
2023-07-24T02:36:29.666Z,8.70
2023-07-24T02:38:57.668Z,7.80
2023-07-24T02:41:25.333Z,8.20
2023-07-24T02:43:53.607Z,8.40
2023-07-24T02:46:21.281Z,8.40
2023-07-24T02:48:49.437Z,8.30
2023-07-24T02:51:17.203Z,8.30
2023-07-24T02:53:44.864Z,8.20
2023-07-24T02:56:12.416Z,8.20
2023-07-24T02:58:40.491Z,8.10
2023-07-24T03:01:09.007Z,8.00
2023-07-24T03:03:36.772Z,7.40
2023-07-24T03:06:05.016Z,7.40
2023-07-24T03:08:33.799Z,8.20
2023-07-24T03:11:03.613Z,8.50
2023-07-24T03:13:31.685Z,8.40
2023-07-24T03:16:00.711Z,9.00
2023-07-24T03:18:28.337Z,8.60
2023-07-24T03:20:56.720Z,7.70
2023-07-24T03:23:24.382Z,8.00
2023-07-24T03:25:52.038Z,8.50
2023-07-24T03:28:19.594Z,7.60
2023-07-24T03:30:47.351Z,8.10
2023-07-24T03:33:15.325Z,7.40
2023-07-24T03:35:42.894Z,6.90
2023-07-24T03:38:10.442Z,6.30
2023-07-24T03:40:38.002Z,6.40
2023-07-24T03:43:05.663Z,5.70
2023-07-24T03:45:33.228Z,5.90
2023-07-24T03:48:00.920Z,6.30
2023-07-24T03:50:30.501Z,6.00
2023-07-24T03:52:58.046Z,5.50
2023-07-24T03:55:25.675Z,5.80
2023-07-24T03:57:53.369Z,4.90
2023-07-24T04:00:21.153Z,5.40
2023-07-24T04:02:48.805Z,5.10
2023-07-24T04:05:16.565Z,4.90
2023-07-24T04:07:44.230Z,3.80
2023-07-24T04:10:11.987Z,4.30
2023-07-24T04:12:39.644Z,4.50
2023-07-24T04:15:08.224Z,4.30
2023-07-24T04:17:37.250Z,4.20
2023-07-24T04:20:05.900Z,4.00
2023-07-24T04:22:33.568Z,4.20
2023-07-24T04:25:01.224Z,4.30
2023-07-24T04:27:29.825Z,4.20
2023-07-24T04:29:57.468Z,4.10
2023-07-24T04:32:25.170Z,4.10
2023-07-24T04:34:52.789Z,4.80
2023-07-24T04:37:20.972Z,3.70
2023-07-24T04:39:48.722Z,3.60
2023-07-24T04:42:16.283Z,3.80
2023-07-24T04:44:43.842Z,3.80
2023-07-24T04:47:11.506Z,4.20
2023-07-24T04:49:39.273Z,3.90
2023-07-24T04:52:07.240Z,4.20
2023-07-24T04:54:35.208Z,4.50
2023-07-24T04:57:03.069Z,4.50
2023-07-24T04:59:30.736Z,4.80
2023-07-24T05:01:58.404Z,5.10
2023-07-24T05:04:26.274Z,5.70
2023-07-24T05:06:54.634Z,5.00
2023-07-24T05:09:22.200Z,5.30
2023-07-24T05:11:49.857Z,4.90
2023-07-24T05:14:17.514Z,5.80
2023-07-24T05:16:45.363Z,5.90
2023-07-24T05:19:13.148Z,5.50
2023-07-24T05:21:40.909Z,5.60
2023-07-24T05:24:08.573Z,5.90
2023-07-24T05:26:36.342Z,5.80
2023-07-24T05:29:03.997Z,5.10
2023-07-24T05:31:31.719Z,5.10
2023-07-24T05:33:59.314Z,5.30
2023-07-24T05:36:27.952Z,4.50
2023-07-24T05:38:55.971Z,4.20
2023-07-24T05:41:23.935Z,4.60
2023-07-24T05:43:51.804Z,4.30
2023-07-24T05:46:20.023Z,3.80
2023-07-24T05:48:47.740Z,3.80
2023-07-24T05:51:16.021Z,4.20
2023-07-24T05:53:43.473Z,4.10
2023-07-24T05:56:11.953Z,3.80
2023-07-24T05:58:39.624Z,3.70
2023-07-24T06:01:09.958Z,3.80
2023-07-24T06:03:40.367Z,3.90
2023-07-24T06:06:08.739Z,3.90
2023-07-24T06:08:36.808Z,3.70
2023-07-24T06:11:04.982Z,3.70
2023-07-24T06:13:32.550Z,3.40
2023-07-24T06:16:00.947Z,3.10
2023-07-24T06:18:28.788Z,3.40
2023-07-24T06:20:56.454Z,3.50
2023-07-24T06:23:24.516Z,3.00
2023-07-24T06:25:53.204Z,2.70
2023-07-24T06:28:20.965Z,2.90
2023-07-24T06:30:49.137Z,2.50
2023-07-24T06:33:16.803Z,3.70
2023-07-24T06:35:44.467Z,2.80
2023-07-24T06:38:12.224Z,3.00
2023-07-24T06:40:39.891Z,2.80
2023-07-24T06:43:07.568Z,2.90
2023-07-24T06:45:35.266Z,3.40
2023-07-24T06:48:02.999Z,2.60
2023-07-24T06:50:30.663Z,2.60
2023-07-24T06:52:58.709Z,2.30
2023-07-24T06:55:26.368Z,2.30
2023-07-24T06:57:54.449Z,2.70
2023-07-24T07:00:22.306Z,2.80
2023-07-24T07:02:49.906Z,2.40
2023-07-24T07:05:17.723Z,2.70
2023-07-24T07:07:46.106Z,2.60
2023-07-24T07:10:13.676Z,2.60
2023-07-24T07:12:41.324Z,2.50
2023-07-24T07:15:09.428Z,2.10
2023-07-24T07:17:37.101Z,2.60
2023-07-24T07:20:05.460Z,2.80
2023-07-24T07:22:33.198Z,2.40
2023-07-24T07:25:00.872Z,2.40
2023-07-24T07:27:28.627Z,2.10
2023-07-24T07:29:56.289Z,2.00
2023-07-24T07:32:24.056Z,2.10
2023-07-24T07:34:51.927Z,2.30
2023-07-24T07:37:19.578Z,2.30
2023-07-24T07:39:47.343Z,2.10
2023-07-24T07:42:18.161Z,1.80
2023-07-24T07:44:47.568Z,1.90
2023-07-24T07:47:15.368Z,2.20
2023-07-24T07:49:43.436Z,2.40
2023-07-24T07:52:11.067Z,1.90
2023-07-24T07:54:38.737Z,1.90
2023-07-24T07:57:06.509Z,1.90
2023-07-24T07:59:35.174Z,2.00
2023-07-24T08:02:02.843Z,2.00
2023-07-24T08:04:30.506Z,2.00
2023-07-24T08:06:58.563Z,2.20
2023-07-24T08:09:26.328Z,1.80
2023-07-24T08:11:54.518Z,2.10
2023-07-24T08:14:22.274Z,1.70
2023-07-24T08:16:51.194Z,2.20
2023-07-24T08:19:18.917Z,1.80
2023-07-24T08:21:48.328Z,2.00
2023-07-24T08:24:16.036Z,1.90
2023-07-24T08:26:44.360Z,2.10
2023-07-24T08:29:11.932Z,2.30
2023-07-24T08:31:40.160Z,1.70
2023-07-24T08:34:07.857Z,1.90
2023-07-24T08:36:36.130Z,2.00
2023-07-24T08:39:04.610Z,2.50
2023-07-24T08:41:33.840Z,2.00
2023-07-24T08:44:01.472Z,2.30
2023-07-24T08:46:29.662Z,3.20
2023-07-24T08:48:58.122Z,2.00
2023-07-24T08:51:25.704Z,2.10
2023-07-24T08:53:53.650Z,1.70
2023-07-24T08:56:21.622Z,1.60
2023-07-24T08:58:49.280Z,1.70
2023-07-24T09:01:17.693Z,1.70
2023-07-24T09:03:45.546Z,1.60
2023-07-24T09:06:13.293Z,1.30
2023-07-24T09:08:42.488Z,1.90
2023-07-24T09:11:11.194Z,1.90
2023-07-24T09:13:39.910Z,1.90
2023-07-24T09:16:07.710Z,1.50
2023-07-24T09:18:42.458Z,1.50
2023-07-24T09:21:13.794Z,1.70
2023-07-24T09:23:42.271Z,1.70
2023-07-24T09:26:10.142Z,2.00
2023-07-24T09:28:38.104Z,1.70
2023-07-24T09:31:06.475Z,1.70
2023-07-24T09:33:38.834Z,1.60
2023-07-24T09:36:11.907Z,1.80
2023-07-24T09:38:40.538Z,1.60
2023-07-24T09:41:10.095Z,1.50
2023-07-24T09:43:40.315Z,1.60
2023-07-24T09:46:10.975Z,1.90
2023-07-24T09:48:42.391Z,1.70
2023-07-24T09:51:29.684Z,2.10
2023-07-24T09:54:02.047Z,1.70
2023-07-24T09:56:43.452Z,1.90
2023-07-24T09:59:16.086Z,1.90
2023-07-24T10:01:44.360Z,2.00
2023-07-24T10:04:12.269Z,1.90
2023-07-24T10:06:40.617Z,2.00
2023-07-24T10:09:08.271Z,1.70
2023-07-24T10:11:36.074Z,1.70
2023-07-24T10:14:03.695Z,1.80
2023-07-24T10:16:31.912Z,2.50
2023-07-24T10:18:59.725Z,2.90
2023-07-24T10:21:28.739Z,2.80
2023-07-24T10:23:56.685Z,4.40
2023-07-24T10:26:28.513Z,2.90
2023-07-24T10:28:56.101Z,3.10
2023-07-24T10:31:26.963Z,3.30
2023-07-24T10:33:54.674Z,3.40
2023-07-24T10:36:24.146Z,2.60
2023-07-24T10:38:55.882Z,2.00
2023-07-24T10:41:24.037Z,2.30
2023-07-24T10:43:53.751Z,2.20
2023-07-24T10:46:22.873Z,2.20
2023-07-24T10:48:52.276Z,2.40
2023-07-24T10:51:20.936Z,2.30
2023-07-24T10:53:49.646Z,3.00
2023-07-24T10:56:17.881Z,2.40
2023-07-24T10:58:45.654Z,2.50
2023-07-24T11:01:14.143Z,3.00
2023-07-24T11:03:43.133Z,3.10
2023-07-24T11:06:16.130Z,2.40
2023-07-24T11:08:44.182Z,2.30
2023-07-24T11:11:13.513Z,2.70
2023-07-24T11:13:41.144Z,2.60
2023-07-24T11:16:09.922Z,2.70
2023-07-24T11:18:54.642Z,2.40
2023-07-24T11:21:26.450Z,2.00
2023-07-24T11:23:56.109Z,2.50
2023-07-24T11:26:25.071Z,2.90
2023-07-24T11:28:53.521Z,2.50
2023-07-24T11:31:22.052Z,2.40
2023-07-24T11:33:53.248Z,2.40
2023-07-24T11:36:21.727Z,2.10
2023-07-24T11:38:49.798Z,2.00
2023-07-24T11:41:21.389Z,1.80
2023-07-24T11:43:52.129Z,2.00
2023-07-24T11:46:31.564Z,1.90
2023-07-24T11:48:59.927Z,2.10
2023-07-24T11:51:29.906Z,2.20
2023-07-24T11:54:08.713Z,2.10
2023-07-24T11:56:37.460Z,2.00
2023-07-24T11:59:12.776Z,1.90
2023-07-24T12:01:40.557Z,1.80
2023-07-24T12:04:08.269Z,1.90
2023-07-24T12:06:37.284Z,2.00
2023-07-24T12:09:08.456Z,2.00
2023-07-24T12:11:46.908Z,2.40
2023-07-24T12:14:16.141Z,2.10
2023-07-24T12:16:44.680Z,1.70
2023-07-24T12:19:12.491Z,1.80
2023-07-24T12:21:40.350Z,2.40
2023-07-24T12:24:08.732Z,2.10
2023-07-24T12:26:36.899Z,1.90
2023-07-24T12:33:04.530Z,1.80
2023-07-24T12:35:32.961Z,2.00
2023-07-24T12:38:00.824Z,2.20
2023-07-24T12:40:28.603Z,1.80
2023-07-24T12:42:56.258Z,2.00
2023-07-24T12:45:24.024Z,2.20
2023-07-24T12:47:51.701Z,2.50
2023-07-24T12:50:19.443Z,2.30
2023-07-24T12:52:47.435Z,2.20
2023-07-24T12:55:15.593Z,2.40
2023-07-24T12:57:43.243Z,2.40
2023-07-24T13:00:11.420Z,2.30
2023-07-24T13:02:39.308Z,2.60
2023-07-24T13:05:07.455Z,2.40
2023-07-24T13:07:35.221Z,2.50
2023-07-24T13:10:02.885Z,2.20
2023-07-24T13:12:30.541Z,2.60
2023-07-24T13:14:58.218Z,2.10
2023-07-24T13:17:26.395Z,2.30
2023-07-24T13:19:54.035Z,2.30
2023-07-24T13:22:21.697Z,2.30
2023-07-24T13:24:49.309Z,2.40
2023-07-24T13:27:16.907Z,2.40
2023-07-24T13:29:44.588Z,2.80
2023-07-24T13:32:12.250Z,2.40
2023-07-24T13:34:40.099Z,3.30
2023-07-24T13:37:07.761Z,3.10
2023-07-24T13:39:36.849Z,2.60
2023-07-24T13:42:04.834Z,2.70
2023-07-24T13:44:32.492Z,2.70
2023-07-24T13:47:00.353Z,3.50
2023-07-24T13:49:28.013Z,3.30
2023-07-24T13:51:55.682Z,2.90
2023-07-24T13:54:23.345Z,3.10
2023-07-24T13:56:51.000Z,2.80
2023-07-24T13:59:19.636Z,2.90
2023-07-24T14:01:47.478Z,3.30
2023-07-24T14:04:15.900Z,3.10
2023-07-24T14:06:44.304Z,3.00
2023-07-24T14:09:13.092Z,3.70
2023-07-24T14:11:40.757Z,3.90
2023-07-24T14:14:09.231Z,3.70
2023-07-24T14:16:37.663Z,4.00
2023-07-24T14:19:06.701Z,3.80
2023-07-24T14:21:34.886Z,3.40
2023-07-24T14:24:02.530Z,4.00
2023-07-24T14:26:30.809Z,3.80
2023-07-24T14:28:58.471Z,3.70
2023-07-24T14:31:26.638Z,4.10
2023-07-24T14:33:54.513Z,4.30
2023-07-24T14:36:22.375Z,4.50
2023-07-24T14:38:50.956Z,4.70
2023-07-24T14:41:19.130Z,5.20
2023-07-24T14:43:46.796Z,4.60
2023-07-24T14:46:14.679Z,4.90
2023-07-24T14:48:42.330Z,5.20
2023-07-24T14:51:10.282Z,5.10
2023-07-24T14:53:38.459Z,5.40
2023-07-24T14:56:06.124Z,5.20
2023-07-24T14:58:33.881Z,5.80
2023-07-24T15:01:01.565Z,4.90
2023-07-24T15:03:29.656Z,5.60
2023-07-24T15:05:57.793Z,5.50
2023-07-24T15:08:25.358Z,4.90
2023-07-24T15:10:52.906Z,5.20
2023-07-24T15:13:21.084Z,5.40
2023-07-24T15:15:48.894Z,5.30
2023-07-24T15:18:16.706Z,4.80
2023-07-24T15:20:44.260Z,5.20
2023-07-24T15:23:12.128Z,5.20
2023-07-24T15:25:39.788Z,5.00
2023-07-24T15:28:07.349Z,4.80
2023-07-24T15:30:35.123Z,5.20
2023-07-24T15:33:02.830Z,4.60
2023-07-24T15:35:30.541Z,5.20
2023-07-24T15:37:58.295Z,4.90
2023-07-24T15:40:25.958Z,4.60
2023-07-24T15:42:53.625Z,5.30
2023-07-24T15:45:21.285Z,5.10
2023-07-24T15:47:49.037Z,5.30
2023-07-24T15:50:16.803Z,5.20
2023-07-24T15:52:44.373Z,5.50
2023-07-24T15:55:12.129Z,5.20
2023-07-24T15:57:39.787Z,4.90
2023-07-24T16:00:09.807Z,5.00
2023-07-24T16:02:40.478Z,5.20
2023-07-24T16:05:20.607Z,5.20
2023-07-24T16:07:48.727Z,5.00
2023-07-24T16:10:17.972Z,5.00
2023-07-24T16:12:45.829Z,4.10
2023-07-24T16:15:13.489Z,4.30
2023-07-24T16:18:05.691Z,4.90
2023-07-24T16:20:29.507Z,4.40
2023-07-24T16:22:57.361Z,5.00
2023-07-24T16:25:25.026Z,4.70
2023-07-24T16:27:52.689Z,4.70
2023-07-24T16:30:22.260Z,4.80
2023-07-24T16:32:50.768Z,5.30
2023-07-24T16:35:18.737Z,4.50
2023-07-24T16:37:48.542Z,5.30
2023-07-24T16:40:16.928Z,4.60
2023-07-24T16:42:46.635Z,4.60
2023-07-24T16:45:29.064Z,5.30
2023-07-24T16:47:57.306Z,4.90
2023-07-24T16:50:25.600Z,4.70
2023-07-24T16:52:53.352Z,5.00
2023-07-24T16:55:21.021Z,5.10
2023-07-24T16:57:48.674Z,4.40
2023-07-24T17:00:17.576Z,4.80
2023-07-24T17:02:45.260Z,4.50
2023-07-24T17:05:12.993Z,5.00
2023-07-24T17:07:40.650Z,5.00
2023-07-24T17:10:10.694Z,4.90
2023-07-24T17:12:38.334Z,5.10
2023-07-24T17:15:06.827Z,4.40
2023-07-24T17:17:34.746Z,5.10
2023-07-24T17:20:02.434Z,5.70
2023-07-24T17:22:30.093Z,6.00
2023-07-24T17:24:58.182Z,6.80
2023-07-24T17:27:26.788Z,8.30
2023-07-24T17:29:54.405Z,9.00
2023-07-24T17:32:23.617Z,8.10
2023-07-24T17:34:51.281Z,8.40
2023-07-24T17:37:36.200Z,7.00
2023-07-24T17:40:09.362Z,7.20
2023-07-24T17:42:37.614Z,7.60
2023-07-24T17:45:05.755Z,7.00
2023-07-24T17:47:34.225Z,8.00
2023-07-24T17:50:07.906Z,6.70
2023-07-24T17:52:37.310Z,6.70
2023-07-24T17:55:05.569Z,6.30
2023-07-24T17:57:34.250Z,5.70
2023-07-24T18:00:02.086Z,6.30
2023-07-24T18:02:32.764Z,6.90
2023-07-24T18:05:00.778Z,6.90
2023-07-24T18:07:28.340Z,6.40
2023-07-24T18:09:55.998Z,7.10
2023-07-24T18:12:24.070Z,9.10
2023-07-24T18:14:51.740Z,7.00
2023-07-24T18:17:19.401Z,6.90
2023-07-24T18:19:48.241Z,6.90
2023-07-24T18:22:17.272Z,6.60
2023-07-24T18:24:45.377Z,7.00
2023-07-24T18:27:13.510Z,6.50
2023-07-24T18:29:41.304Z,8.60
2023-07-24T18:32:09.706Z,7.00
2023-07-24T18:34:37.635Z,6.60
2023-07-24T18:37:05.798Z,6.70
2023-07-24T18:39:33.461Z,6.80
2023-07-24T18:42:01.321Z,6.40
2023-07-24T18:44:28.985Z,6.30
2023-07-24T18:46:56.644Z,7.60
2023-07-24T18:49:24.611Z,7.00
2023-07-24T18:51:53.516Z,6.60
2023-07-24T18:54:22.607Z,7.20
2023-07-24T18:56:50.362Z,6.70
2023-07-24T18:59:18.126Z,7.40
2023-07-24T19:01:46.413Z,7.50
2023-07-24T19:04:14.678Z,7.60
2023-07-24T19:06:42.445Z,8.20
2023-07-24T19:09:10.099Z,12.50
2023-07-24T19:11:37.866Z,12.00
2023-07-24T19:14:05.730Z,15.80
2023-07-24T19:16:33.746Z,16.90
2023-07-24T19:19:05.161Z,16.70
2023-07-24T19:21:33.179Z,21.70
2023-07-24T19:24:00.982Z,20.30
2023-07-24T19:26:28.642Z,22.00
2023-07-24T19:28:56.302Z,20.90
2023-07-24T19:31:24.720Z,21.50
2023-07-24T19:33:52.351Z,20.90
2023-07-24T19:36:20.922Z,20.30
2023-07-24T19:38:48.585Z,20.50
2023-07-24T19:41:16.243Z,19.50
2023-07-24T19:43:44.418Z,18.50
2023-07-24T19:46:12.232Z,18.00
2023-07-24T19:48:40.154Z,18.30
2023-07-24T19:51:07.811Z,19.60
2023-07-24T19:53:35.461Z,18.70
2023-07-24T19:56:03.024Z,16.30
2023-07-24T19:58:33.846Z,15.70
2023-07-24T20:01:03.119Z,16.70
2023-07-24T20:03:31.489Z,15.50
2023-07-24T20:06:03.426Z,13.30
2023-07-24T20:08:34.746Z,13.50
2023-07-24T20:11:03.862Z,12.50
2023-07-24T20:13:32.135Z,13.60
2023-07-24T20:15:59.810Z,13.00
2023-07-24T20:18:27.535Z,12.90
2023-07-24T20:20:55.506Z,12.70
2023-07-24T20:23:23.274Z,11.20
2023-07-24T20:25:54.219Z,10.80
2023-07-24T20:28:22.132Z,10.10
2023-07-24T20:30:49.849Z,10.40
2023-07-24T20:33:17.610Z,9.80
2023-07-24T20:35:46.507Z,10.30
2023-07-24T20:38:33.623Z,8.70
2023-07-24T20:41:02.310Z,9.90
2023-07-24T20:43:30.967Z,8.10
2023-07-24T20:45:58.710Z,8.90
2023-07-24T20:48:27.687Z,8.10
2023-07-24T20:50:55.389Z,8.90
2023-07-24T20:53:23.001Z,6.60
2023-07-24T20:55:50.624Z,6.10
2023-07-24T20:58:18.273Z,6.10
2023-07-24T21:00:45.935Z,6.60
2023-07-24T21:03:13.596Z,6.90
2023-07-24T21:05:41.323Z,5.80
2023-07-24T21:08:09.939Z,5.60
2023-07-24T21:10:37.602Z,6.00
2023-07-24T21:13:05.365Z,5.70
2023-07-24T21:15:33.669Z,5.60
2023-07-24T21:18:01.398Z,5.40
2023-07-24T21:20:29.067Z,5.90
2023-07-24T21:22:56.727Z,5.30
2023-07-24T21:25:24.392Z,5.50
2023-07-24T21:27:52.041Z,5.60
2023-07-24T21:30:21.915Z,5.90
2023-07-24T21:32:49.674Z,5.70
2023-07-24T21:35:19.631Z,5.30
2023-07-24T21:37:47.296Z,5.50
2023-07-24T21:40:14.964Z,5.10
2023-07-24T21:42:42.717Z,4.90
2023-07-24T21:45:10.785Z,5.20
2023-07-24T21:47:38.880Z,5.40
2023-07-24T21:50:07.571Z,4.80
2023-07-24T21:52:35.206Z,5.20
2023-07-24T21:55:02.869Z,5.00
2023-07-24T21:57:30.536Z,5.00
2023-07-24T21:59:58.193Z,4.70
2023-07-24T22:02:25.958Z,4.60
2023-07-24T22:04:53.720Z,5.10
2023-07-24T22:07:21.380Z,4.00
2023-07-24T22:09:48.934Z,4.50
2023-07-24T22:12:16.824Z,4.80
2023-07-24T22:14:44.569Z,4.60
2023-07-24T22:17:12.243Z,4.90
2023-07-24T22:19:39.893Z,4.60
2023-07-24T22:22:08.075Z,4.70
2023-07-24T22:24:37.959Z,5.10
2023-07-24T22:27:06.570Z,5.20
2023-07-24T22:29:34.115Z,5.00
2023-07-24T22:32:01.891Z,4.90
2023-07-24T22:34:29.546Z,5.00
2023-07-24T22:36:57.917Z,4.50
2023-07-24T22:39:25.987Z,4.90
2023-07-24T22:41:53.855Z,4.80
2023-07-24T22:44:21.435Z,5.10
2023-07-24T22:46:49.473Z,5.00
2023-07-24T22:49:17.255Z,5.20
2023-07-24T22:51:45.322Z,5.00
2023-07-24T22:54:12.976Z,4.70
2023-07-24T22:56:41.883Z,4.80
2023-07-24T22:59:19.421Z,5.30
2023-07-24T23:01:47.433Z,5.40
2023-07-24T23:04:15.196Z,5.20
2023-07-24T23:06:43.570Z,5.00
2023-07-24T23:09:11.437Z,4.70
2023-07-24T23:11:39.716Z,5.10
2023-07-24T23:14:07.368Z,5.20
2023-07-24T23:16:35.763Z,5.00
2023-07-24T23:19:03.616Z,5.10
2023-07-24T23:21:32.021Z,5.30
2023-07-24T23:23:59.805Z,5.10
2023-07-24T23:26:27.946Z,5.40
2023-07-24T23:28:58.672Z,5.70
2023-07-24T23:31:26.337Z,5.40
2023-07-24T23:33:54.601Z,5.40
2023-07-24T23:36:22.997Z,5.40
2023-07-24T23:38:50.640Z,5.40
2023-07-24T23:41:18.297Z,5.40
2023-07-24T23:43:45.959Z,6.00
2023-07-24T23:46:17.577Z,5.70
2023-07-24T23:48:45.392Z,5.60
2023-07-24T23:51:20.142Z,5.10
2023-07-24T23:53:48.276Z,5.60
2023-07-24T23:56:15.938Z,5.20
2023-07-24T23:58:43.500Z,4.90
